NSZ3733 LIRF-EKCH
Flight info
| Callsign | NSZ3733 |
|---|---|
| Flight time | 2h 8m |
| Altitude | 36000 |
| Route | SOVAN DCT AMTEL DCT NUKNI DCT SUMIR DCT BRENO DCT KONIN DCT EXITI DCT EMBOX M726 ROSOK Q296 MONAK |
| Aircraft | B738/M-SDE2E3FGHIRWXY/LB1 |
Departure
| Time | 2026-05-04 16:37 |
|---|---|
| Airport | Rome–Fiumicino Leonardo da Vinci International Airport (LIRF) |
Arrival
| Time | 2026-05-04 18:45 |
|---|---|
| Airport | Copenhagen Kastrup Airport (EKCH) |
| Time | Latitude | Longitude | Altitude | Speed | Heading |
|---|---|---|---|---|---|
| 2026-05-04 16:15 | 41.79594 | 12.25765 | 13 ft | 0 kts | 115° |
| 2026-05-04 16:26 | 41.79607 | 12.25730 | 15 ft | 4 kts | 102° |
| 2026-05-04 16:27 | 41.79586 | 12.25687 | 14 ft | 1 kts | 25° |
| 2026-05-04 16:28 | 41.79583 | 12.25685 | 13 ft | 0 kts | 25° |
| 2026-05-04 16:28 | 41.79583 | 12.25684 | 13 ft | 0 kts | 25° |
| 2026-05-04 16:30 | 41.79686 | 12.25750 | 13 ft | 15 kts | 25° |
| 2026-05-04 16:31 | 41.79866 | 12.25824 | 13 ft | 5 kts | 15° |
| 2026-05-04 16:31 | 41.80072 | 12.25946 | 13 ft | 18 kts | 25° |
| 2026-05-04 16:32 | 41.80390 | 12.26264 | 16 ft | 20 kts | 70° |
| 2026-05-04 16:33 | 41.80485 | 12.26594 | 14 ft | 18 kts | 69° |
| 2026-05-04 16:33 | 41.80567 | 12.26905 | 13 ft | 17 kts | 70° |
| 2026-05-04 16:34 | 41.80734 | 12.27056 | 15 ft | 15 kts | 5° |
| 2026-05-04 16:34 | 41.80832 | 12.27028 | 13 ft | 13 kts | 340° |
| 2026-05-04 16:35 | 41.80878 | 12.27006 | 12 ft | 7 kts | 340° |
| 2026-05-04 16:35 | 41.80947 | 12.26893 | 13 ft | 6 kts | 251° |
| 2026-05-04 16:36 | 41.80855 | 12.26557 | 15 ft | 72 kts | 249° |
| 2026-05-04 16:36 | 41.80208 | 12.24308 | 63 ft | 175 kts | 248° |
| 2026-05-04 16:37 | 41.79438 | 12.21222 | 1561 ft | 176 kts | 233° |
| 2026-05-04 16:37 | 41.78450 | 12.20040 | 1666 ft | 205 kts | 207° |
| 2026-05-04 16:37 | 41.76207 | 12.17378 | 2567 ft | 235 kts | 249° |
| 2026-05-04 16:38 | 41.76824 | 12.12974 | 3578 ft | 269 kts | 306° |
| 2026-05-04 16:39 | 41.82082 | 12.10285 | 5749 ft | 285 kts | 353° |
| 2026-05-04 16:39 | 41.86080 | 12.09709 | 7168 ft | 292 kts | 353° |
| 2026-05-04 16:40 | 41.90108 | 12.09066 | 8687 ft | 293 kts | 352° |
| 2026-05-04 16:40 | 41.94180 | 12.08356 | 10192 ft | 295 kts | 350° |
| 2026-05-04 16:41 | 41.98425 | 12.07584 | 10790 ft | 328 kts | 350° |
| 2026-05-04 16:41 | 42.05607 | 12.06264 | 12235 ft | 354 kts | 349° |
| 2026-05-04 16:42 | 42.12978 | 12.04904 | 14351 ft | 360 kts | 349° |
| 2026-05-04 16:43 | 42.17996 | 12.03972 | 15535 ft | 369 kts | 349° |
| 2026-05-04 16:43 | 42.23129 | 12.02885 | 16719 ft | 377 kts | 347° |
| 2026-05-04 16:43 | 42.25722 | 12.02293 | 17359 ft | 380 kts | 347° |
| 2026-05-04 16:44 | 42.36332 | 11.99879 | 19642 ft | 392 kts | 347° |
| 2026-05-04 16:45 | 42.41706 | 11.98669 | 20746 ft | 396 kts | 347° |
| 2026-05-04 16:46 | 42.49937 | 11.96814 | 22297 ft | 404 kts | 348° |
| 2026-05-04 16:46 | 42.55514 | 11.95555 | 23285 ft | 409 kts | 348° |
| 2026-05-04 16:47 | 42.61163 | 11.94277 | 24174 ft | 413 kts | 348° |
| 2026-05-04 16:47 | 42.66839 | 11.92991 | 25054 ft | 415 kts | 347° |
| 2026-05-04 16:48 | 42.75434 | 11.91038 | 26236 ft | 420 kts | 346° |
| 2026-05-04 16:48 | 42.78323 | 11.90380 | 26613 ft | 421 kts | 346° |
| 2026-05-04 16:49 | 42.84048 | 11.88659 | 27290 ft | 421 kts | 335° |
| 2026-05-04 16:49 | 42.89241 | 11.85116 | 28070 ft | 417 kts | 327° |
| 2026-05-04 16:50 | 42.94344 | 11.81301 | 28774 ft | 420 kts | 326° |
| 2026-05-04 16:50 | 42.99494 | 11.77493 | 29481 ft | 422 kts | 326° |
| 2026-05-04 16:51 | 43.04681 | 11.73678 | 30046 ft | 428 kts | 327° |
| 2026-05-04 16:51 | 43.07323 | 11.71734 | 30160 ft | 433 kts | 327° |
| 2026-05-04 16:51 | 43.12595 | 11.67854 | 31071 ft | 425 kts | 327° |
| 2026-05-04 16:52 | 43.17757 | 11.64046 | 31924 ft | 419 kts | 326° |
| 2026-05-04 16:52 | 43.20387 | 11.62286 | 32182 ft | 426 kts | 333° |
| 2026-05-04 16:53 | 43.26215 | 11.60382 | 32818 ft | 439 kts | 348° |
| 2026-05-04 16:53 | 43.35384 | 11.59639 | 33751 ft | 439 kts | 349° |
| 2026-05-04 16:54 | 43.38427 | 11.59412 | 34094 ft | 437 kts | 349° |
| 2026-05-04 16:55 | 43.50499 | 11.58378 | 34992 ft | 436 kts | 349° |
| 2026-05-04 16:55 | 43.56529 | 11.57840 | 35529 ft | 433 kts | 349° |
| 2026-05-04 16:56 | 43.62534 | 11.57302 | 35994 ft | 432 kts | 349° |
| 2026-05-04 16:56 | 43.71592 | 11.56489 | 36083 ft | 436 kts | 350° |
| 2026-05-04 16:57 | 43.80612 | 11.55683 | 36105 ft | 430 kts | 350° |
| 2026-05-04 16:58 | 43.92531 | 11.54755 | 36099 ft | 429 kts | 351° |
| 2026-05-04 17:00 | 44.10749 | 11.53352 | 36147 ft | 443 kts | 352° |
| 2026-05-04 17:01 | 44.26029 | 11.52169 | 36155 ft | 434 kts | 351° |
| 2026-05-04 17:02 | 44.37047 | 11.51304 | 36088 ft | 432 kts | 351° |
| 2026-05-04 17:03 | 44.46068 | 11.50594 | 36064 ft | 434 kts | 352° |
| 2026-05-04 17:03 | 44.55123 | 11.49880 | 36048 ft | 436 kts | 352° |
| 2026-05-04 17:04 | 44.67283 | 11.48918 | 36076 ft | 439 kts | 352° |
| 2026-05-04 17:05 | 44.79533 | 11.47947 | 36107 ft | 442 kts | 352° |
| 2026-05-04 17:06 | 44.88762 | 11.47212 | 36130 ft | 444 kts | 352° |
| 2026-05-04 17:07 | 44.96972 | 11.46556 | 36125 ft | 444 kts | 352° |
| 2026-05-04 17:07 | 45.04184 | 11.45979 | 36116 ft | 444 kts | 353° |
| 2026-05-04 17:08 | 45.13399 | 11.45239 | 36104 ft | 444 kts | 352° |
| 2026-05-04 17:09 | 45.19558 | 11.44743 | 36103 ft | 443 kts | 352° |
| 2026-05-04 17:09 | 45.25646 | 11.44251 | 36094 ft | 443 kts | 353° |
| 2026-05-04 17:10 | 45.41001 | 11.43007 | 36086 ft | 442 kts | 353° |
| 2026-05-04 17:11 | 45.47140 | 11.42507 | 36069 ft | 442 kts | 353° |
| 2026-05-04 17:12 | 45.56335 | 11.41757 | 36061 ft | 441 kts | 353° |
| 2026-05-04 17:13 | 45.71655 | 11.40501 | 36090 ft | 442 kts | 353° |
| 2026-05-04 17:14 | 45.83936 | 11.39489 | 36128 ft | 443 kts | 353° |
| 2026-05-04 17:15 | 45.93183 | 11.38725 | 36140 ft | 444 kts | 353° |
| 2026-05-04 17:16 | 46.05540 | 11.37700 | 36130 ft | 445 kts | 353° |
| 2026-05-04 17:17 | 46.17910 | 11.36668 | 36113 ft | 445 kts | 353° |
| 2026-05-04 17:18 | 46.30305 | 11.35941 | 36099 ft | 447 kts | 358° |
| 2026-05-04 17:19 | 46.42748 | 11.36371 | 35999 ft | 447 kts | 358° |
| 2026-05-04 17:20 | 46.55142 | 11.36687 | 36013 ft | 447 kts | 358° |
| 2026-05-04 17:20 | 46.64508 | 11.36905 | 36033 ft | 446 kts | 358° |
| 2026-05-04 17:21 | 46.76912 | 11.37197 | 36036 ft | 448 kts | 358° |
| 2026-05-04 17:22 | 46.83194 | 11.37346 | 36044 ft | 448 kts | 358° |
| 2026-05-04 17:23 | 46.95646 | 11.37643 | 36004 ft | 449 kts | 358° |
| 2026-05-04 17:24 | 47.05020 | 11.37691 | 36017 ft | 449 kts | 357° |
| 2026-05-04 17:25 | 47.17521 | 11.37505 | 35951 ft | 449 kts | 357° |
| 2026-05-04 17:26 | 47.30019 | 11.37373 | 35953 ft | 450 kts | 357° |
| 2026-05-04 17:27 | 47.45729 | 11.37212 | 35951 ft | 452 kts | 357° |
| 2026-05-04 17:28 | 47.58317 | 11.37083 | 35926 ft | 453 kts | 357° |
| 2026-05-04 17:29 | 47.77262 | 11.36887 | 35922 ft | 454 kts | 357° |
| 2026-05-04 17:31 | 47.93059 | 11.36902 | 35940 ft | 454 kts | 359° |
| 2026-05-04 17:32 | 48.08845 | 11.37315 | 35940 ft | 453 kts | 358° |
| 2026-05-04 17:33 | 48.21445 | 11.37598 | 35940 ft | 452 kts | 358° |
| 2026-05-04 17:34 | 48.33992 | 11.37878 | 35940 ft | 452 kts | 358° |
| 2026-05-04 17:35 | 48.49759 | 11.38234 | 35941 ft | 452 kts | 358° |
| 2026-05-04 17:36 | 48.56053 | 11.38377 | 35926 ft | 452 kts | 358° |
| 2026-05-04 17:36 | 48.62310 | 11.38519 | 35916 ft | 453 kts | 358° |
| 2026-05-04 17:37 | 48.68603 | 11.38663 | 35912 ft | 453 kts | 358° |
| 2026-05-04 17:37 | 48.74908 | 11.38807 | 35928 ft | 453 kts | 358° |
| 2026-05-04 17:38 | 48.81259 | 11.38952 | 35920 ft | 454 kts | 358° |
| 2026-05-04 17:38 | 48.87536 | 11.39096 | 35920 ft | 455 kts | 358° |
| 2026-05-04 17:39 | 48.97073 | 11.39316 | 35932 ft | 455 kts | 358° |
| 2026-05-04 17:39 | 49.03361 | 11.39461 | 35935 ft | 455 kts | 358° |
| 2026-05-04 17:40 | 49.09745 | 11.39609 | 35942 ft | 456 kts | 358° |
| 2026-05-04 17:40 | 49.16046 | 11.39756 | 35946 ft | 456 kts | 358° |
| 2026-05-04 17:41 | 49.22384 | 11.39903 | 35947 ft | 456 kts | 358° |
| 2026-05-04 17:41 | 49.28732 | 11.40052 | 35943 ft | 456 kts | 358° |
| 2026-05-04 17:42 | 49.35067 | 11.40200 | 35951 ft | 455 kts | 358° |
| 2026-05-04 17:42 | 49.41401 | 11.40349 | 35971 ft | 455 kts | 358° |
| 2026-05-04 17:43 | 49.47733 | 11.40497 | 35963 ft | 455 kts | 358° |
| 2026-05-04 17:43 | 49.54069 | 11.40647 | 35961 ft | 455 kts | 358° |
| 2026-05-04 17:44 | 49.60397 | 11.40700 | 35953 ft | 454 kts | 356° |
| 2026-05-04 17:44 | 49.66712 | 11.40539 | 35962 ft | 454 kts | 355° |
| 2026-05-04 17:45 | 49.73030 | 11.40356 | 35950 ft | 454 kts | 355° |
| 2026-05-04 17:45 | 49.79336 | 11.40199 | 35961 ft | 453 kts | 355° |
| 2026-05-04 17:46 | 49.85636 | 11.40058 | 35950 ft | 453 kts | 356° |
| 2026-05-04 17:46 | 49.91938 | 11.39921 | 35960 ft | 453 kts | 355° |
| 2026-05-04 17:47 | 49.98238 | 11.39783 | 35960 ft | 453 kts | 355° |
| 2026-05-04 17:47 | 50.04538 | 11.39644 | 35958 ft | 452 kts | 355° |
| 2026-05-04 17:48 | 50.10786 | 11.39506 | 35975 ft | 452 kts | 355° |
| 2026-05-04 17:48 | 50.17072 | 11.39366 | 35964 ft | 452 kts | 355° |
| 2026-05-04 17:49 | 50.22337 | 11.39249 | 35968 ft | 451 kts | 355° |
| 2026-05-04 17:49 | 50.28619 | 11.39109 | 35965 ft | 451 kts | 355° |
| 2026-05-04 17:50 | 50.34889 | 11.38969 | 35975 ft | 451 kts | 355° |
| 2026-05-04 17:50 | 50.41157 | 11.38829 | 35970 ft | 450 kts | 355° |
| 2026-05-04 17:51 | 50.47424 | 11.38687 | 35971 ft | 450 kts | 355° |
| 2026-05-04 17:51 | 50.53687 | 11.38546 | 35969 ft | 450 kts | 355° |
| 2026-05-04 17:52 | 50.59952 | 11.38405 | 35975 ft | 450 kts | 355° |
| 2026-05-04 17:52 | 50.66214 | 11.38262 | 35973 ft | 450 kts | 355° |
| 2026-05-04 17:53 | 50.72437 | 11.38121 | 35965 ft | 450 kts | 355° |
| 2026-05-04 17:53 | 50.78700 | 11.37979 | 35989 ft | 450 kts | 355° |
| 2026-05-04 17:54 | 50.85007 | 11.37834 | 35974 ft | 450 kts | 355° |
| 2026-05-04 17:54 | 50.91235 | 11.37692 | 35966 ft | 450 kts | 355° |
| 2026-05-04 17:55 | 50.97540 | 11.37547 | 35985 ft | 451 kts | 355° |
| 2026-05-04 17:55 | 51.03787 | 11.38060 | 35998 ft | 455 kts | 3° |
| 2026-05-04 17:56 | 51.10106 | 11.39531 | 35981 ft | 457 kts | 5° |
| 2026-05-04 17:56 | 51.16353 | 11.41044 | 35976 ft | 457 kts | 4° |
| 2026-05-04 17:57 | 51.22646 | 11.42486 | 35971 ft | 457 kts | 4° |
| 2026-05-04 17:57 | 51.28945 | 11.43881 | 35978 ft | 457 kts | 4° |
| 2026-05-04 17:58 | 51.35255 | 11.45266 | 35974 ft | 458 kts | 4° |
| 2026-05-04 17:58 | 51.41564 | 11.46654 | 35971 ft | 458 kts | 4° |
| 2026-05-04 17:59 | 51.47872 | 11.48049 | 35970 ft | 457 kts | 4° |
| 2026-05-04 18:00 | 51.57331 | 11.50150 | 35959 ft | 457 kts | 4° |
| 2026-05-04 18:00 | 51.63637 | 11.51555 | 35960 ft | 457 kts | 4° |
| 2026-05-04 18:01 | 51.69939 | 11.52964 | 35944 ft | 457 kts | 4° |
| 2026-05-04 18:01 | 51.76248 | 11.54379 | 35951 ft | 458 kts | 3° |
| 2026-05-04 18:02 | 51.85706 | 11.56506 | 35935 ft | 457 kts | 3° |
| 2026-05-04 18:02 | 51.92007 | 11.57928 | 35946 ft | 457 kts | 3° |
| 2026-05-04 18:03 | 51.98304 | 11.59354 | 35957 ft | 457 kts | 3° |
| 2026-05-04 18:03 | 52.04606 | 11.60784 | 35962 ft | 457 kts | 3° |
| 2026-05-04 18:04 | 52.10897 | 11.62217 | 35966 ft | 456 kts | 3° |
| 2026-05-04 18:05 | 52.20326 | 11.64371 | 35981 ft | 456 kts | 3° |
| 2026-05-04 18:05 | 52.26607 | 11.65811 | 35965 ft | 456 kts | 3° |
| 2026-05-04 18:06 | 52.36025 | 11.67978 | 35963 ft | 456 kts | 3° |
| 2026-05-04 18:06 | 52.42297 | 11.69427 | 35965 ft | 455 kts | 3° |
| 2026-05-04 18:07 | 52.48573 | 11.70880 | 35963 ft | 455 kts | 2° |
| 2026-05-04 18:07 | 52.54848 | 11.72338 | 35963 ft | 455 kts | 2° |
| 2026-05-04 18:08 | 52.61119 | 11.73798 | 35961 ft | 455 kts | 2° |
| 2026-05-04 18:08 | 52.67389 | 11.75263 | 35981 ft | 455 kts | 2° |
| 2026-05-04 18:09 | 52.79930 | 11.78205 | 35963 ft | 455 kts | 2° |
| 2026-05-04 18:10 | 52.86161 | 11.79674 | 35965 ft | 455 kts | 2° |
| 2026-05-04 18:10 | 52.92429 | 11.81155 | 35959 ft | 455 kts | 2° |
| 2026-05-04 18:11 | 52.98696 | 11.82641 | 35960 ft | 455 kts | 2° |
| 2026-05-04 18:11 | 53.04966 | 11.84131 | 35958 ft | 455 kts | 2° |
| 2026-05-04 18:12 | 53.11234 | 11.85626 | 35961 ft | 455 kts | 2° |
| 2026-05-04 18:12 | 53.17498 | 11.87124 | 35976 ft | 455 kts | 2° |
| 2026-05-04 18:13 | 53.23764 | 11.88627 | 35965 ft | 455 kts | 2° |
| 2026-05-04 18:14 | 53.33170 | 11.90891 | 35954 ft | 455 kts | 2° |
| 2026-05-04 18:14 | 53.39434 | 11.92405 | 35960 ft | 455 kts | 2° |
| 2026-05-04 18:15 | 53.51874 | 11.95432 | 35909 ft | 440 kts | 2° |
| 2026-05-04 18:15 | 53.54930 | 11.96177 | 34996 ft | 448 kts | 2° |
| 2026-05-04 18:16 | 53.57952 | 11.96919 | 35078 ft | 431 kts | 2° |
| 2026-05-04 18:16 | 53.63790 | 11.98353 | 35049 ft | 425 kts | 1° |
| 2026-05-04 18:17 | 53.69769 | 11.99794 | 34639 ft | 439 kts | 2° |
| 2026-05-04 18:17 | 53.72781 | 12.00532 | 34390 ft | 435 kts | 1° |
| 2026-05-04 18:17 | 53.78680 | 12.01998 | 33889 ft | 423 kts | 1° |
| 2026-05-04 18:18 | 53.81585 | 12.02719 | 33613 ft | 421 kts | 1° |
| 2026-05-04 18:18 | 53.84484 | 12.03434 | 33339 ft | 421 kts | 1° |
| 2026-05-04 18:18 | 53.87379 | 12.04148 | 33069 ft | 420 kts | 1° |
| 2026-05-04 18:18 | 53.90266 | 12.04861 | 32824 ft | 420 kts | 1° |
| 2026-05-04 18:19 | 53.96103 | 12.06300 | 31842 ft | 427 kts | 1° |
| 2026-05-04 18:19 | 53.99033 | 12.07029 | 31330 ft | 425 kts | 1° |
| 2026-05-04 18:19 | 54.01966 | 12.07761 | 30831 ft | 425 kts | 0° |
| 2026-05-04 18:20 | 54.04892 | 12.08493 | 30339 ft | 425 kts | 0° |
| 2026-05-04 18:20 | 54.07822 | 12.09226 | 29820 ft | 425 kts | 0° |
| 2026-05-04 18:20 | 54.10749 | 12.09960 | 29260 ft | 424 kts | 0° |
| 2026-05-04 18:20 | 54.13669 | 12.10692 | 28711 ft | 423 kts | 1° |
| 2026-05-04 18:21 | 54.16579 | 12.11424 | 28201 ft | 422 kts | 0° |
| 2026-05-04 18:21 | 54.19481 | 12.12154 | 27668 ft | 421 kts | 0° |
| 2026-05-04 18:21 | 54.22372 | 12.12882 | 27146 ft | 419 kts | 0° |
| 2026-05-04 18:21 | 54.25253 | 12.13609 | 26630 ft | 418 kts | 0° |
| 2026-05-04 18:22 | 54.28121 | 12.14334 | 26120 ft | 414 kts | 0° |
| 2026-05-04 18:22 | 54.30938 | 12.15052 | 25603 ft | 405 kts | 0° |
| 2026-05-04 18:22 | 54.33697 | 12.15757 | 25101 ft | 396 kts | 0° |
| 2026-05-04 18:22 | 54.36395 | 12.16446 | 24597 ft | 389 kts | 0° |
| 2026-05-04 18:23 | 54.39046 | 12.17120 | 24110 ft | 382 kts | 0° |
| 2026-05-04 18:23 | 54.41652 | 12.17782 | 23650 ft | 375 kts | 360° |
| 2026-05-04 18:23 | 54.44215 | 12.18433 | 23096 ft | 370 kts | 0° |
| 2026-05-04 18:23 | 54.46707 | 12.19066 | 22532 ft | 364 kts | 0° |
| 2026-05-04 18:24 | 54.49230 | 12.19707 | 21967 ft | 359 kts | 0° |
| 2026-05-04 18:24 | 54.51653 | 12.20323 | 21411 ft | 355 kts | 1° |
| 2026-05-04 18:24 | 54.54110 | 12.20949 | 20894 ft | 350 kts | 1° |
| 2026-05-04 18:24 | 54.56513 | 12.21561 | 20392 ft | 350 kts | 1° |
| 2026-05-04 18:25 | 54.58927 | 12.22174 | 19927 ft | 352 kts | 2° |
| 2026-05-04 18:25 | 54.61321 | 12.22784 | 19490 ft | 352 kts | 2° |
| 2026-05-04 18:25 | 54.63733 | 12.23403 | 19035 ft | 348 kts | 3° |
| 2026-05-04 18:25 | 54.66104 | 12.24015 | 18600 ft | 343 kts | 3° |
| 2026-05-04 18:26 | 54.68469 | 12.24624 | 18165 ft | 344 kts | 3° |
| 2026-05-04 18:26 | 54.70837 | 12.25234 | 17698 ft | 344 kts | 4° |
| 2026-05-04 18:26 | 54.73208 | 12.25845 | 17240 ft | 344 kts | 4° |
| 2026-05-04 18:26 | 54.75574 | 12.26456 | 16800 ft | 344 kts | 4° |
| 2026-05-04 18:27 | 54.77922 | 12.27065 | 16348 ft | 337 kts | 4° |
| 2026-05-04 18:27 | 54.80217 | 12.27663 | 15889 ft | 331 kts | 3° |
| 2026-05-04 18:27 | 54.82475 | 12.28250 | 15429 ft | 325 kts | 3° |
| 2026-05-04 18:27 | 54.84693 | 12.28825 | 14969 ft | 320 kts | 3° |
| 2026-05-04 18:28 | 54.86879 | 12.29392 | 14526 ft | 316 kts | 3° |
| 2026-05-04 18:28 | 54.89037 | 12.29952 | 14084 ft | 313 kts | 3° |
| 2026-05-04 18:28 | 54.91183 | 12.30511 | 13650 ft | 310 kts | 3° |
| 2026-05-04 18:28 | 54.93305 | 12.31064 | 13162 ft | 308 kts | 4° |
| 2026-05-04 18:29 | 54.95357 | 12.32165 | 12634 ft | 315 kts | 26° |
| 2026-05-04 18:29 | 54.97188 | 12.34306 | 12119 ft | 317 kts | 31° |
| 2026-05-04 18:29 | 54.98989 | 12.36494 | 11633 ft | 315 kts | 31° |
| 2026-05-04 18:29 | 55.00785 | 12.38645 | 11160 ft | 312 kts | 30° |
| 2026-05-04 18:30 | 55.04361 | 12.42837 | 10267 ft | 307 kts | 30° |
| 2026-05-04 18:30 | 55.06128 | 12.44899 | 9817 ft | 304 kts | 30° |
| 2026-05-04 18:30 | 55.07878 | 12.46944 | 9327 ft | 301 kts | 30° |
| 2026-05-04 18:31 | 55.09604 | 12.48963 | 8991 ft | 296 kts | 30° |
| 2026-05-04 18:31 | 55.11334 | 12.50987 | 8974 ft | 300 kts | 30° |
| 2026-05-04 18:31 | 55.13059 | 12.53010 | 8956 ft | 297 kts | 30° |
| 2026-05-04 18:31 | 55.14780 | 12.55031 | 8967 ft | 298 kts | 30° |
| 2026-05-04 18:32 | 55.16494 | 12.57046 | 8952 ft | 296 kts | 30° |
| 2026-05-04 18:32 | 55.18199 | 12.59050 | 8862 ft | 294 kts | 30° |
| 2026-05-04 18:32 | 55.19886 | 12.61039 | 8605 ft | 291 kts | 30° |
| 2026-05-04 18:32 | 55.21570 | 12.63024 | 8236 ft | 292 kts | 30° |
| 2026-05-04 18:33 | 55.23267 | 12.64968 | 7912 ft | 290 kts | 24° |
| 2026-05-04 18:33 | 55.25111 | 12.66283 | 7619 ft | 284 kts | 13° |
| 2026-05-04 18:33 | 55.26996 | 12.67284 | 7354 ft | 281 kts | 12° |
| 2026-05-04 18:33 | 55.28858 | 12.68250 | 7102 ft | 278 kts | 13° |
| 2026-05-04 18:34 | 55.30079 | 12.68905 | 6938 ft | 277 kts | 13° |
| 2026-05-04 18:34 | 55.31907 | 12.69915 | 6689 ft | 274 kts | 13° |
| 2026-05-04 18:34 | 55.33712 | 12.70934 | 6440 ft | 271 kts | 14° |
| 2026-05-04 18:34 | 55.36078 | 12.72282 | 6104 ft | 268 kts | 14° |
| 2026-05-04 18:35 | 55.37848 | 12.73292 | 5842 ft | 266 kts | 14° |
| 2026-05-04 18:35 | 55.39032 | 12.73970 | 5670 ft | 264 kts | 14° |
| 2026-05-04 18:35 | 55.40774 | 12.74967 | 5412 ft | 262 kts | 14° |
| 2026-05-04 18:35 | 55.42505 | 12.75959 | 5156 ft | 261 kts | 14° |
| 2026-05-04 18:36 | 55.44223 | 12.76944 | 4903 ft | 259 kts | 14° |
| 2026-05-04 18:36 | 55.45926 | 12.77922 | 4656 ft | 257 kts | 15° |
| 2026-05-04 18:36 | 55.47620 | 12.78896 | 4390 ft | 255 kts | 15° |
| 2026-05-04 18:36 | 55.49183 | 12.79794 | 4148 ft | 254 kts | 15° |
| 2026-05-04 18:37 | 55.50864 | 12.80761 | 4047 ft | 257 kts | 15° |
| 2026-05-04 18:37 | 55.52573 | 12.81745 | 4009 ft | 259 kts | 15° |
| 2026-05-04 18:37 | 55.54274 | 12.82727 | 4000 ft | 256 kts | 15° |
| 2026-05-04 18:37 | 55.55954 | 12.83710 | 3988 ft | 253 kts | 17° |
| 2026-05-04 18:38 | 55.57576 | 12.84840 | 4002 ft | 255 kts | 19° |
| 2026-05-04 18:38 | 55.59219 | 12.86040 | 4002 ft | 256 kts | 19° |
| 2026-05-04 18:38 | 55.60848 | 12.87228 | 3981 ft | 249 kts | 19° |
| 2026-05-04 18:38 | 55.62414 | 12.88378 | 3983 ft | 238 kts | 21° |
| 2026-05-04 18:39 | 55.63792 | 12.89976 | 4010 ft | 236 kts | 31° |
| 2026-05-04 18:39 | 55.65233 | 12.91289 | 4010 ft | 232 kts | 19° |
| 2026-05-04 18:39 | 55.66724 | 12.92430 | 4013 ft | 235 kts | 20° |
| 2026-05-04 18:39 | 55.68224 | 12.93596 | 4007 ft | 236 kts | 18° |
| 2026-05-04 18:40 | 55.69811 | 12.94102 | 3855 ft | 233 kts | 350° |
| 2026-05-04 18:40 | 55.71347 | 12.93332 | 3623 ft | 228 kts | 336° |
| 2026-05-04 18:40 | 55.72762 | 12.92112 | 3346 ft | 225 kts | 319° |
| 2026-05-04 18:40 | 55.73651 | 12.89896 | 3109 ft | 221 kts | 290° |
| 2026-05-04 18:41 | 55.74063 | 12.87344 | 3044 ft | 210 kts | 281° |
| 2026-05-04 18:41 | 55.73876 | 12.84900 | 2962 ft | 199 kts | 241° |
| 2026-05-04 18:41 | 55.72977 | 12.83095 | 2776 ft | 193 kts | 229° |
| 2026-05-04 18:41 | 55.72020 | 12.81461 | 2531 ft | 190 kts | 226° |
| 2026-05-04 18:42 | 55.71040 | 12.79918 | 2267 ft | 187 kts | 225° |
| 2026-05-04 18:42 | 55.70078 | 12.78432 | 2019 ft | 179 kts | 225° |
| 2026-05-04 18:42 | 55.69169 | 12.77030 | 1774 ft | 168 kts | 225° |
| 2026-05-04 18:42 | 55.68316 | 12.75709 | 1547 ft | 159 kts | 226° |
| 2026-05-04 18:43 | 55.67488 | 12.74424 | 1344 ft | 158 kts | 225° |
| 2026-05-04 18:43 | 55.66673 | 12.73163 | 1123 ft | 157 kts | 225° |
| 2026-05-04 18:43 | 55.65870 | 12.71920 | 904 ft | 148 kts | 226° |
| 2026-05-04 18:43 | 55.65115 | 12.70750 | 699 ft | 143 kts | 225° |
| 2026-05-04 18:44 | 55.64366 | 12.69587 | 539 ft | 144 kts | 224° |
| 2026-05-04 18:44 | 55.63867 | 12.68815 | 386 ft | 144 kts | 224° |
| 2026-05-04 18:44 | 55.62866 | 12.67256 | 146 ft | 144 kts | 225° |
| 2026-05-04 18:44 | 55.62123 | 12.66105 | 23 ft | 136 kts | 225° |
| 2026-05-04 18:45 | 55.61637 | 12.65335 | 21 ft | 53 kts | 236° |
| 2026-05-04 18:45 | 55.61650 | 12.64955 | 24 ft | 29 kts | 307° |
| 2026-05-04 18:45 | 55.61679 | 12.64895 | 24 ft | 1 kts | 311° |
| 2026-05-04 18:45 | 55.61687 | 12.64880 | 23 ft | 2 kts | 311° |
| 2026-05-04 18:46 | 55.61708 | 12.64844 | 23 ft | 7 kts | 323° |
| 2026-05-04 18:46 | 55.61765 | 12.64796 | 23 ft | 11 kts | 345° |
| 2026-05-04 18:46 | 55.61832 | 12.64786 | 23 ft | 7 kts | 2° |
| 2026-05-04 18:46 | 55.61898 | 12.64822 | 23 ft | 12 kts | 28° |
| 2026-05-04 18:47 | 55.61937 | 12.64865 | 23 ft | 0 kts | 32° |
| 2026-05-04 18:47 | 55.61939 | 12.64868 | 23 ft | 0 kts | 32° |
| 2026-05-04 18:47 | 55.61955 | 12.64886 | 22 ft | 9 kts | 32° |
| 2026-05-04 18:48 | 55.62039 | 12.64908 | 24 ft | 14 kts | 320° |
| 2026-05-04 18:48 | 55.62095 | 12.64788 | 26 ft | 0 kts | 306° |
| 2026-05-04 18:48 | 55.62096 | 12.64784 | 25 ft | 2 kts | 306° |
| 2026-05-04 18:48 | 55.62108 | 12.64755 | 23 ft | 1 kts | 306° |
| 2026-05-04 18:49 | 55.62114 | 12.64741 | 26 ft | 2 kts | 307° |
| 2026-05-04 18:49 | 55.62123 | 12.64725 | 25 ft | 2 kts | 319° |
| 2026-05-04 18:49 | 55.62152 | 12.64713 | 24 ft | 7 kts | 5° |
| 2026-05-04 18:49 | 55.62168 | 12.64724 | 24 ft | 0 kts | 25° |
| 2026-05-04 18:50 | 55.62189 | 12.64744 | 25 ft | 7 kts | 35° |
| 2026-05-04 18:50 | 55.62206 | 12.64765 | 25 ft | 0 kts | 35° |
| 2026-05-04 18:52 | 55.62212 | 12.64773 | 24 ft | 5 kts | 35° |
| 2026-05-04 18:52 | 55.62257 | 12.64827 | 25 ft | 10 kts | 35° |
| 2026-05-04 18:52 | 55.62319 | 12.64894 | 23 ft | 10 kts | 10° |
| 2026-05-04 18:52 | 55.62372 | 12.64816 | 24 ft | 10 kts | 306° |
| 2026-05-04 18:53 | 55.62411 | 12.64714 | 24 ft | 10 kts | 304° |
| 2026-05-04 18:53 | 55.62448 | 12.64612 | 23 ft | 10 kts | 303° |
| 2026-05-04 18:53 | 55.62485 | 12.64514 | 23 ft | 9 kts | 304° |
| 2026-05-04 18:53 | 55.62521 | 12.64419 | 23 ft | 9 kts | 304° |
| 2026-05-04 18:54 | 55.62555 | 12.64325 | 24 ft | 9 kts | 302° |
| 2026-05-04 18:54 | 55.62588 | 12.64234 | 24 ft | 9 kts | 303° |
| 2026-05-04 18:54 | 55.62620 | 12.64145 | 25 ft | 8 kts | 302° |
| 2026-05-04 18:54 | 55.62651 | 12.64059 | 25 ft | 8 kts | 302° |
| 2026-05-04 18:55 | 55.62690 | 12.63994 | 23 ft | 8 kts | 354° |
| 2026-05-04 18:55 | 55.62742 | 12.64037 | 23 ft | 1 kts | 32° |
| 2026-05-04 18:55 | 55.62743 | 12.64039 | 23 ft | 0 kts | 32° |